Terminal Aerodrome Forecast
Issued by NWS Corpus Christi, TX

Home | Current Version | Previous Version | Text Only | Print | Product List | Glossary On
Versions: 1 2 3 4 5 6 7 8 9 10 11 12 13 14
000
FTUS44 KCRP 012327
TAFVCT
TAF
KVCT 012327Z 0200/0224 14005KT P6SM SKC
     FM020900 VRB03KT 3SM BR SKC
      TEMPO 0209/0213 1 1/2SM BR FEW004
     FM021300 19004KT P6SM FEW025=

USA.gov is the U.S. government's official web portal to all federal, state and local government web resources and services.